Time;durP1;ratioP1;P1;durP2;ratioP2;P2;SDS_P1;SDS_P2;PMS_P1;PMS_P2;Temp;Humidity;BMP_temperature;BMP_pressure;BME280_temperature;BME280_humidity;BME280_pressure;Samples;Min_cycle;Max_cycle;Signal;HPM_P1;HPM_P2
2021/07/12 00:00:55;;;;;;;4.63;3.83;;;;;;;;;;5071940;28;20187;-81
2021/07/12 00:03:21;;;;;;;3.57;3.27;;;;;;;;;;5072050;28;20187;-81
2021/07/12 00:05:47;;;;;;;4.37;3.97;;;;;;;;;;5071429;28;20177;-81
2021/07/12 00:08:13;;;;;;;5.43;3.70;;;;;;;;;;5071764;28;20538;-81
2021/07/12 00:10:39;;;;;;;3.73;3.43;;;;;;;;;;5071619;28;20180;-81
2021/07/12 00:13:05;;;;;;;4.10;3.70;;;;;;;;;;5073373;28;20173;-81
2021/07/12 00:15:32;;;;;;;4.07;3.77;;;;;;;;;;5071455;28;20642;-81
2021/07/12 00:17:59;;;;;;;4.37;3.97;;;;;;;;;;5071756;28;20199;-81
2021/07/12 00:20:25;;;;;;;3.57;3.27;;;;;;;;;;5072781;28;20169;-81
2021/07/12 00:22:52;;;;;;;3.70;3.40;;;;;;;;;;5070920;28;20188;-81
2021/07/12 00:25:19;;;;;;;3.93;3.23;;;;;;;;;;5072808;28;20173;-81
2021/07/12 00:27:45;;;;;;;3.80;3.50;;;;;;;;;;5072572;28;20195;-82
2021/07/12 00:30:13;;;;;;;4.33;3.93;;;;;;;;;;5071775;28;20191;-81
2021/07/12 00:32:39;;;;;;;3.63;3.33;;;;;;;;;;5071078;28;20630;-81
2021/07/12 00:35:06;;;;;;;4.33;3.33;;;;;;;;;;5072897;28;20172;-81
2021/07/12 00:37:33;;;;;;;4.70;3.73;;;;;;;;;;5072576;28;20749;-81
2021/07/12 00:39:59;;;;;;;4.10;3.70;;;;;;;;;;5071289;28;20177;-81
2021/07/12 00:42:25;;;;;;;4.23;3.83;;;;;;;;;;5071210;28;20184;-81
2021/07/12 00:44:51;;;;;;;4.23;3.83;;;;;;;;;;5071599;28;20168;-81
2021/07/12 00:47:17;;;;;;;4.50;3.80;;;;;;;;;;5071096;28;20187;-81
2021/07/12 00:49:43;;;;;;;6.20;3.60;;;;;;;;;;5070232;28;20219;-81
2021/07/12 00:52:09;;;;;;;4.37;3.53;;;;;;;;;;5070682;28;20212;-81
2021/07/12 00:54:36;;;;;;;3.90;3.60;;;;;;;;;;5070387;28;20780;-81
2021/07/12 00:57:04;;;;;;;3.37;3.10;;;;;;;;;;5071246;28;20200;-81
2021/07/12 00:59:30;;;;;;;3.47;3.20;;;;;;;;;;5072240;28;20169;-81
2021/07/12 01:01:56;;;;;;;4.47;4.07;;;;;;;;;;5071322;28;20569;-81
2021/07/12 01:04:23;;;;;;;4.07;3.77;;;;;;;;;;5072047;28;20174;-82
2021/07/12 01:06:49;;;;;;;3.70;3.40;;;;;;;;;;5056703;28;20730;-81
2021/07/12 01:09:15;;;;;;;3.77;3.47;;;;;;;;;;5067765;28;20177;-81
2021/07/12 01:12:04;;;;;;;3.50;3.30;;;;;;;;;;5052409;28;20513;-81
2021/07/12 01:14:36;;;;;;;3.70;3.40;;;;;;;;;;5032233;28;20282;-81
2021/07/12 01:17:11;;;;;;;3.50;3.10;;;;;;;;;;5052296;28;20193;-81
2021/07/12 01:19:50;;;;;;;3.50;3.20;;;;;;;;;;5052387;28;20172;-81
2021/07/12 01:22:34;;;;;;;3.50;3.20;;;;;;;;;;5067552;28;20620;-81
2021/07/12 01:25:19;;;;;;;4.20;3.50;;;;;;;;;;5051999;28;20565;-81
2021/07/12 01:28:09;;;;;;;3.40;3.10;;;;;;;;;;5051971;28;20169;-81
2021/07/12 01:30:47;;;;;;;3.37;3.00;;;;;;;;;;5067044;28;20195;-82
2021/07/12 01:33:28;;;;;;;4.73;4.27;;;;;;;;;;5066392;28;20227;-82
2021/07/12 01:36:02;;;;;;;3.37;3.07;;;;;;;;;;5051383;28;20547;-82
2021/07/12 01:38:46;;;;;;;3.60;3.30;;;;;;;;;;5067097;28;20255;-82
2021/07/12 01:41:29;;;;;;;3.43;3.13;;;;;;;;;;5066844;28;20267;-81
2021/07/12 01:44:12;;;;;;;3.20;2.90;;;;;;;;;;5051632;28;20177;-81
2021/07/12 01:46:41;;;;;;;3.37;3.07;;;;;;;;;;5066852;28;20180;-81
2021/07/12 01:49:13;;;;;;;4.03;3.73;;;;;;;;;;5051937;28;20173;-81
2021/07/12 01:51:49;;;;;;;5.40;3.73;;;;;;;;;;5066478;28;20191;-81
2021/07/12 01:54:33;;;;;;;3.90;3.60;;;;;;;;;;5066816;28;20258;-81
2021/07/12 01:57:02;;;;;;;4.27;3.90;;;;;;;;;;5070146;28;20226;-81
2021/07/12 01:59:58;;;;;;;3.57;3.30;;;;;;;;;;5070236;28;20177;-81
2021/07/12 02:02:26;;;;;;;5.07;3.40;;;;;;;;;;5057695;28;20272;-81
2021/07/12 02:04:53;;;;;;;3.17;2.97;;;;;;;;;;5069837;28;20176;-81
2021/07/12 02:07:19;;;;;;;3.87;3.57;;;;;;;;;;5069670;28;20203;-81
2021/07/12 02:09:47;;;;;;;3.77;3.47;;;;;;;;;;5069626;28;20176;-81
2021/07/12 02:12:14;;;;;;;4.00;3.70;;;;;;;;;;5070896;28;20179;-80
2021/07/12 02:14:41;;;;;;;3.43;3.13;;;;;;;;;;5069823;28;20618;-81
2021/07/12 02:17:08;;;;;;;3.60;3.30;;;;;;;;;;5069764;28;20299;-81
2021/07/12 02:19:34;;;;;;;3.80;3.50;;;;;;;;;;5071074;28;20168;-80
2021/07/12 02:22:01;;;;;;;3.60;3.30;;;;;;;;;;5070597;28;20203;-81
2021/07/12 02:24:28;;;;;;;3.80;3.43;;;;;;;;;;5069962;28;20212;-81
2021/07/12 02:26:55;;;;;;;3.70;3.40;;;;;;;;;;5069812;28;20176;-81
2021/07/12 02:29:21;;;;;;;4.10;3.30;;;;;;;;;;5071521;28;20175;-81
2021/07/12 02:31:48;;;;;;;3.93;3.60;;;;;;;;;;5069662;28;20176;-81
2021/07/12 02:34:14;;;;;;;3.80;3.50;;;;;;;;;;5071356;28;20246;-81
2021/07/12 02:36:40;;;;;;;3.77;3.47;;;;;;;;;;5070497;28;20211;-81
2021/07/12 02:39:10;;;;;;;4.40;3.97;;;;;;;;;;5069788;28;20176;-81
2021/07/12 02:41:37;;;;;;;3.90;3.60;;;;;;;;;;5071259;28;20663;-81
2021/07/12 02:44:05;;;;;;;3.90;3.60;;;;;;;;;;5070662;28;20187;-80
2021/07/12 02:46:31;;;;;;;3.60;3.30;;;;;;;;;;5074863;28;20191;-82
2021/07/12 02:48:58;;;;;;;4.20;3.90;;;;;;;;;;5073422;28;20267;-81
2021/07/12 02:51:36;;;;;;;3.57;3.27;;;;;;;;;;5074573;28;20177;-81
2021/07/12 02:54:03;;;;;;;3.80;3.50;;;;;;;;;;5073236;28;20242;-81
2021/07/12 02:56:29;;;;;;;3.87;3.53;;;;;;;;;;5073208;28;20341;-81
2021/07/12 02:58:55;;;;;;;3.70;3.40;;;;;;;;;;5073457;28;20200;-81
2021/07/12 03:01:21;;;;;;;4.13;3.53;;;;;;;;;;5074619;28;20633;-81
2021/07/12 03:03:48;;;;;;;4.00;3.60;;;;;;;;;;5074499;28;20607;-82
2021/07/12 03:06:15;;;;;;;4.73;3.67;;;;;;;;;;5072995;28;20200;-81
2021/07/12 03:08:52;;;;;;;4.63;3.33;;;;;;;;;;5073519;28;20200;-81
2021/07/12 03:11:19;;;;;;;3.80;3.50;;;;;;;;;;5074869;28;20182;-81
2021/07/12 03:13:50;;;;;;;4.10;3.20;;;;;;;;;;5074439;28;20165;-81
2021/07/12 03:16:17;;;;;;;3.80;3.40;;;;;;;;;;5072639;28;20275;-80
2021/07/12 03:18:48;;;;;;;5.03;3.63;;;;;;;;;;5072879;28;20214;-80
2021/07/12 03:21:14;;;;;;;4.07;3.67;;;;;;;;;;5072578;28;20181;-81
2021/07/12 03:23:42;;;;;;;4.07;3.77;;;;;;;;;;5072769;28;20176;-80
2021/07/12 03:26:10;;;;;;;3.73;3.40;;;;;;;;;;5073028;28;20176;-81
2021/07/12 03:28:37;;;;;;;4.00;3.70;;;;;;;;;;5072316;28;20566;-80
2021/07/12 03:31:04;;;;;;;3.97;3.50;;;;;;;;;;5074110;28;20523;-81
2021/07/12 03:33:30;;;;;;;3.47;3.17;;;;;;;;;;5073939;28;20534;-81
2021/07/12 03:35:57;;;;;;;4.20;3.80;;;;;;;;;;5073509;28;20209;-81
2021/07/12 03:38:23;;;;;;;4.03;3.73;;;;;;;;;;5072712;28;20180;-81
2021/07/12 03:40:50;;;;;;;4.13;3.73;;;;;;;;;;5072614;28;20173;-81
2021/07/12 03:43:17;;;;;;;4.10;3.70;;;;;;;;;;5072110;28;20627;-81
2021/07/12 03:45:44;;;;;;;4.70;4.00;;;;;;;;;;5072338;28;20179;-81
2021/07/12 03:48:10;;;;;;;3.77;3.47;;;;;;;;;;5073824;28;20173;-81
2021/07/12 03:50:36;;;;;;;4.30;3.97;;;;;;;;;;5072660;28;20238;-81
2021/07/12 03:53:03;;;;;;;4.73;3.73;;;;;;;;;;5072232;28;20165;-81
2021/07/12 03:55:30;;;;;;;4.63;3.87;;;;;;;;;;5072573;28;20228;-81
2021/07/12 03:57:58;;;;;;;3.80;3.50;;;;;;;;;;5073527;28;20175;-81
2021/07/12 04:00:25;;;;;;;4.53;3.67;;;;;;;;;;5073715;28;20892;-81
2021/07/12 04:02:51;;;;;;;3.97;3.67;;;;;;;;;;5072382;28;20222;-81
2021/07/12 04:05:20;;;;;;;4.40;4.10;;;;;;;;;;5074015;28;20169;-81
2021/07/12 04:07:46;;;;;;;4.05;3.75;;;;;;;;;;5071318;28;20422;-81
2021/07/12 04:10:13;;;;;;;3.93;3.63;;;;;;;;;;5072414;28;20610;-81
2021/07/12 04:12:40;;;;;;;4.10;3.80;;;;;;;;;;5073363;28;20248;-81
2021/07/12 04:15:07;;;;;;;3.87;3.57;;;;;;;;;;5073792;28;20238;-81
2021/07/12 04:17:33;;;;;;;4.20;3.90;;;;;;;;;;5073338;28;20228;-81
2021/07/12 04:19:59;;;;;;;4.27;3.80;;;;;;;;;;5073747;28;20165;-81
2021/07/12 04:22:25;;;;;;;4.00;3.70;;;;;;;;;;5071685;28;20200;-82
2021/07/12 04:24:52;;;;;;;5.53;3.90;;;;;;;;;;5071904;28;20234;-80
2021/07/12 04:27:18;;;;;;;3.90;3.60;;;;;;;;;;5072995;28;20188;-81
2021/07/12 04:29:44;;;;;;;4.23;3.83;;;;;;;;;;5073160;28;20535;-82
2021/07/12 04:32:10;;;;;;;4.93;3.97;;;;;;;;;;5071522;28;20643;-81
2021/07/12 04:34:37;;;;;;;4.33;3.93;;;;;;;;;;5071450;28;20181;-81
2021/07/12 04:37:03;;;;;;;7.20;4.47;;;;;;;;;;5070847;28;20731;-81
2021/07/12 04:39:29;;;;;;;4.50;4.10;;;;;;;;;;5071732;28;20177;-81
2021/07/12 04:41:55;;;;;;;4.63;4.27;;;;;;;;;;5071764;28;20177;-81
2021/07/12 04:44:21;;;;;;;4.37;3.97;;;;;;;;;;5073441;28;20179;-81
2021/07/12 04:46:48;;;;;;;4.33;3.93;;;;;;;;;;5071008;28;20543;-81
2021/07/12 04:49:14;;;;;;;4.53;4.13;;;;;;;;;;5071287;28;20180;-80
2021/07/12 04:51:40;;;;;;;4.30;4.00;;;;;;;;;;5071227;28;20575;-81
2021/07/12 04:54:06;;;;;;;4.70;4.30;;;;;;;;;;5070998;28;20317;-78
2021/07/12 04:56:33;;;;;;;4.63;4.27;;;;;;;;;;5070712;28;20639;-81
2021/07/12 04:59:00;;;;;;;4.77;4.27;;;;;;;;;;5072250;28;20179;-81
2021/07/12 05:01:27;;;;;;;6.47;4.13;;;;;;;;;;5070788;28;20267;-80
2021/07/12 05:03:53;;;;;;;4.83;4.40;;;;;;;;;;5070908;28;20226;-81
2021/07/12 05:06:19;;;;;;;4.80;4.40;;;;;;;;;;5070306;28;20200;-81
2021/07/12 05:08:45;;;;;;;5.77;4.53;;;;;;;;;;5070377;28;20176;-81
2021/07/12 05:11:11;;;;;;;5.03;4.53;;;;;;;;;;5070734;28;20600;-80
2021/07/12 05:13:37;;;;;;;5.57;4.90;;;;;;;;;;5071963;28;20666;-81
2021/07/12 05:16:04;;;;;;;4.97;4.57;;;;;;;;;;5070594;28;20203;-81
2021/07/12 05:18:31;;;;;;;5.03;4.30;;;;;;;;;;5071969;28;20179;-81
2021/07/12 05:20:57;;;;;;;7.97;5.20;;;;;;;;;;5069849;28;20216;-81
2021/07/12 05:23:23;;;;;;;5.07;4.67;;;;;;;;;;5069927;28;20623;-81
2021/07/12 05:25:49;;;;;;;5.30;4.80;;;;;;;;;;5071404;28;20172;-81
2021/07/12 05:28:15;;;;;;;6.13;5.53;;;;;;;;;;5070239;28;20211;-80
2021/07/12 05:30:41;;;;;;;5.20;4.70;;;;;;;;;;5072162;28;20532;-81
2021/07/12 05:33:08;;;;;;;5.30;4.90;;;;;;;;;;5072237;28;20191;-81
2021/07/12 05:35:34;;;;;;;5.00;4.60;;;;;;;;;;5074114;28;20303;-81
2021/07/12 05:38:00;;;;;;;5.43;5.03;;;;;;;;;;5072530;28;20275;-81
2021/07/12 05:40:26;;;;;;;5.40;4.90;;;;;;;;;;5070659;28;20623;-80
2021/07/12 05:42:52;;;;;;;5.37;4.97;;;;;;;;;;5071832;28;20168;-80
2021/07/12 05:45:18;;;;;;;5.50;5.00;;;;;;;;;;5071031;28;20184;-81
2021/07/12 05:47:44;;;;;;;6.20;5.53;;;;;;;;;;5072163;28;20244;-81
2021/07/12 05:50:11;;;;;;;5.73;5.23;;;;;;;;;;5070655;28;20179;-81
2021/07/12 05:52:37;;;;;;;5.70;5.20;;;;;;;;;;5071923;28;20199;-81
2021/07/12 05:55:06;;;;;;;6.33;5.33;;;;;;;;;;5056122;28;20338;-81
2021/07/12 05:57:32;;;;;;;5.63;5.13;;;;;;;;;;5051903;28;20193;-81
2021/07/12 05:59:58;;;;;;;6.27;5.70;;;;;;;;;;5052274;28;20162;-81
2021/07/12 06:02:24;;;;;;;6.30;5.80;;;;;;;;;;5034265;28;20228;-80
2021/07/12 06:04:50;;;;;;;7.13;6.53;;;;;;;;;;5052005;28;20168;-82
2021/07/12 06:07:16;;;;;;;6.60;5.90;;;;;;;;;;5051529;28;20204;-79
2021/07/12 06:09:42;;;;;;;6.80;6.20;;;;;;;;;;5034064;28;20184;-79
2021/07/12 06:12:08;;;;;;;6.80;6.20;;;;;;;;;;5052175;28;20180;-79
2021/07/12 06:14:34;;;;;;;8.93;6.93;;;;;;;;;;5051745;28;20529;-80
2021/07/12 06:17:02;;;;;;;6.87;6.27;;;;;;;;;;5051844;28;20717;-79
2021/07/12 06:19:28;;;;;;;7.97;6.47;;;;;;;;;;5033603;28;20185;-79
2021/07/12 06:21:54;;;;;;;7.70;6.33;;;;;;;;;;5033525;28;20264;-79
2021/07/12 06:24:20;;;;;;;7.50;6.80;;;;;;;;;;5051501;28;20173;-79
2021/07/12 06:26:46;;;;;;;8.80;7.90;;;;;;;;;;5051808;28;20590;-79
2021/07/12 06:29:12;;;;;;;7.07;6.47;;;;;;;;;;5033591;28;20204;-79
2021/07/12 06:31:38;;;;;;;7.77;7.13;;;;;;;;;;5050967;28;20211;-81
2021/07/12 06:34:04;;;;;;;6.60;6.00;;;;;;;;;;5033250;28;20176;-79
2021/07/12 06:36:30;;;;;;;6.47;5.87;;;;;;;;;;5050954;28;20201;-81
2021/07/12 06:38:56;;;;;;;6.53;6.00;;;;;;;;;;5032949;28;20200;-79
2021/07/12 06:41:22;;;;;;;7.23;6.53;;;;;;;;;;5033678;28;20180;-78
2021/07/12 06:43:51;;;;;;;7.30;6.70;;;;;;;;;;5032943;28;20234;-79
2021/07/12 06:46:17;;;;;;;7.43;6.67;;;;;;;;;;5033227;28;20192;-79
2021/07/12 06:48:43;;;;;;;6.60;6.00;;;;;;;;;;5050998;28;20263;-79
2021/07/12 06:51:10;;;;;;;7.03;6.23;;;;;;;;;;5033031;28;20177;-82
2021/07/12 06:53:36;;;;;;;7.53;6.85;;;;;;;;;;5052860;28;20434;-79
2021/07/12 06:56:06;;;;;;;9.93;6.73;;;;;;;;;;5069972;28;20291;-79
2021/07/12 06:58:33;;;;;;;6.63;6.13;;;;;;;;;;5070521;28;20192;-79
2021/07/12 07:00:59;;;;;;;7.70;7.10;;;;;;;;;;5069949;28;20230;-79
2021/07/12 07:03:25;;;;;;;7.83;7.03;;;;;;;;;;5071433;28;20168;-80
2021/07/12 07:05:51;;;;;;;7.87;7.07;;;;;;;;;;5068989;28;20516;-79
2021/07/12 07:08:17;;;;;;;7.67;6.63;;;;;;;;;;5070304;28;20193;-80
2021/07/12 07:10:43;;;;;;;7.93;7.13;;;;;;;;;;5069599;28;20228;-80
2021/07/12 07:13:09;;;;;;;8.00;7.30;;;;;;;;;;5069792;28;20202;-80
2021/07/12 07:15:35;;;;;;;7.43;6.70;;;;;;;;;;5070998;28;20234;-79
2021/07/12 07:18:01;;;;;;;8.10;7.40;;;;;;;;;;5069734;28;20204;-81
2021/07/12 07:20:27;;;;;;;8.40;7.60;;;;;;;;;;5070079;28;20173;-81
2021/07/12 07:22:53;;;;;;;8.40;7.60;;;;;;;;;;5069547;28;20257;-81
2021/07/12 07:25:20;;;;;;;8.13;7.37;;;;;;;;;;5070986;28;20506;-80
2021/07/12 07:27:46;;;;;;;11.93;8.10;;;;;;;;;;5071136;28;20177;-80
2021/07/12 07:30:13;;;;;;;10.77;8.20;;;;;;;;;;5069991;28;20604;-79
2021/07/12 07:32:40;;;;;;;9.00;8.20;;;;;;;;;;5072787;28;20180;-80
2021/07/12 07:35:07;;;;;;;7.53;6.80;;;;;;;;;;5073195;28;20200;-80
2021/07/12 07:37:33;;;;;;;7.60;6.90;;;;;;;;;;5074650;28;20200;-78
2021/07/12 07:39:59;;;;;;;9.83;7.27;;;;;;;;;;5074217;28;20177;-79
2021/07/12 07:42:25;;;;;;;8.47;7.67;;;;;;;;;;5072770;28;20254;-79
2021/07/12 07:44:52;;;;;;;7.60;6.90;;;;;;;;;;5072326;28;20209;-79
2021/07/12 07:47:18;;;;;;;7.20;6.60;;;;;;;;;;5072918;28;20184;-80
2021/07/12 07:49:44;;;;;;;7.43;6.23;;;;;;;;;;5072649;28;20189;-79
2021/07/12 07:52:10;;;;;;;8.53;6.40;;;;;;;;;;5074061;28;20185;-79
2021/07/12 07:54:36;;;;;;;6.70;6.10;;;;;;;;;;5072052;28;20239;-79
2021/07/12 07:57:03;;;;;;;6.70;6.10;;;;;;;;;;5073610;28;20192;-79
2021/07/12 07:59:29;;;;;;;6.13;5.63;;;;;;;;;;5074471;28;20627;-79
2021/07/12 08:01:55;;;;;;;7.00;6.40;;;;;;;;;;5073822;28;20207;-79
2021/07/12 08:04:21;;;;;;;8.67;5.90;;;;;;;;;;5073608;28;20647;-79
2021/07/12 08:06:47;;;;;;;6.50;5.47;;;;;;;;;;5069719;28;20664;-80
2021/07/12 08:09:13;;;;;;;7.60;6.43;;;;;;;;;;5071298;28;20633;-79
2021/07/12 08:11:40;;;;;;;6.17;5.67;;;;;;;;;;5071310;28;20180;-79
2021/07/12 08:14:06;;;;;;;6.47;5.87;;;;;;;;;;5072701;28;20185;-79
2021/07/12 08:16:32;;;;;;;7.10;6.23;;;;;;;;;;5073913;28;20250;-79
2021/07/12 08:18:59;;;;;;;5.73;5.13;;;;;;;;;;5073788;28;20165;-79
2021/07/12 08:21:25;;;;;;;5.97;5.40;;;;;;;;;;5071674;28;20173;-79
2021/07/12 08:23:51;;;;;;;7.37;6.03;;;;;;;;;;5073696;28;20178;-78
2021/07/12 08:26:17;;;;;;;4.83;4.43;;;;;;;;;;5072216;28;20179;-79
2021/07/12 08:28:43;;;;;;;5.47;4.87;;;;;;;;;;5073047;28;20540;-80
2021/07/12 08:31:11;;;;;;;5.67;5.17;;;;;;;;;;5074116;28;20250;-80
2021/07/12 08:33:37;;;;;;;5.37;4.97;;;;;;;;;;5074091;28;20184;-79
2021/07/12 08:36:03;;;;;;;6.80;4.50;;;;;;;;;;5071798;28;20211;-80
2021/07/12 08:38:29;;;;;;;6.67;5.10;;;;;;;;;;5073461;28;20177;-80
2021/07/12 08:40:56;;;;;;;5.30;4.90;;;;;;;;;;5071991;28;20671;-79
2021/07/12 08:43:22;;;;;;;5.27;4.20;;;;;;;;;;5072345;28;20171;-80
2021/07/12 08:45:48;;;;;;;4.43;4.03;;;;;;;;;;5071640;28;20183;-80
2021/07/12 08:48:14;;;;;;;5.37;4.33;;;;;;;;;;5073163;28;20172;-80
2021/07/12 08:50:41;;;;;;;4.40;4.00;;;;;;;;;;5070906;28;20212;-79
2021/07/12 08:53:07;;;;;;;4.60;4.20;;;;;;;;;;5072911;28;20164;-79
2021/07/12 08:55:33;;;;;;;5.87;3.70;;;;;;;;;;5072710;28;20556;-79
2021/07/12 08:58:04;;;;;;;4.00;3.70;;;;;;;;;;5071295;28;20204;-79
2021/07/12 09:00:36;;;;;;;4.07;3.77;;;;;;;;;;5071652;28;20184;-79
2021/07/12 09:03:35;;;;;;;5.63;4.00;;;;;;;;;;5073080;28;20195;-79
2021/07/12 09:06:11;;;;;;;4.37;3.90;;;;;;;;;;5038699;28;20272;-79
2021/07/12 09:08:41;;;;;;;5.17;4.77;;;;;;;;;;5072450;28;20157;-79
2021/07/12 09:11:09;;;;;;;4.60;3.63;;;;;;;;;;5071062;28;20628;-79
2021/07/12 09:13:48;;;;;;;4.13;3.83;;;;;;;;;;5072389;28;20205;-79
2021/07/12 09:16:47;;;;;;;4.40;4.03;;;;;;;;;;5071333;28;20573;-79
2021/07/12 09:19:13;;;;;;;4.37;4.07;;;;;;;;;;5028141;28;20579;-80
2021/07/12 09:21:47;;;;;;;4.30;3.90;;;;;;;;;;5070440;28;20264;-79
2021/07/12 09:24:16;;;;;;;5.10;4.20;;;;;;;;;;5071807;28;20219;-80
2021/07/12 09:26:43;;;;;;;4.53;4.13;;;;;;;;;;5071169;28;20177;-79
2021/07/12 09:29:20;;;;;;;4.67;4.27;;;;;;;;;;5073058;28;20176;-79
2021/07/12 09:31:46;;;;;;;4.33;3.90;;;;;;;;;;5071981;28;20177;-80
2021/07/12 09:34:12;;;;;;;4.07;3.67;;;;;;;;;;5071325;28;20179;-79
2021/07/12 09:36:38;;;;;;;4.77;3.13;;;;;;;;;;5070331;28;20266;-79
2021/07/12 09:39:17;;;;;;;3.93;3.60;;;;;;;;;;5070643;28;20179;-79
2021/07/12 09:41:46;;;;;;;4.40;3.60;;;;;;;;;;5071687;28;20221;-80
2021/07/12 09:44:12;;;;;;;3.67;3.17;;;;;;;;;;5072312;28;20181;-80
2021/07/12 09:46:38;;;;;;;3.13;2.93;;;;;;;;;;5071689;28;20168;-80
2021/07/12 09:49:11;;;;;;;3.60;3.40;;;;;;;;;;5070388;28;20662;-79
2021/07/12 09:51:38;;;;;;;3.10;2.90;;;;;;;;;;5071408;28;20681;-79
2021/07/12 09:54:18;;;;;;;3.37;3.07;;;;;;;;;;5069594;28;20729;-79
2021/07/12 09:56:44;;;;;;;4.23;2.80;;;;;;;;;;5071654;28;20251;-79
2021/07/12 09:59:14;;;;;;;3.30;3.00;;;;;;;;;;5071120;28;20175;-79
2021/07/12 10:01:45;;;;;;;2.87;2.67;;;;;;;;;;5072157;28;20197;-78
2021/07/12 10:04:11;;;;;;;2.77;2.57;;;;;;;;;;5071724;28;20161;-79
2021/07/12 10:06:37;;;;;;;3.97;2.67;;;;;;;;;;5071686;28;20197;-79
2021/07/12 10:09:04;;;;;;;2.93;2.73;;;;;;;;;;5071787;28;20181;-80
2021/07/12 10:11:31;;;;;;;2.70;2.50;;;;;;;;;;5071893;28;20183;-80
2021/07/12 10:13:58;;;;;;;2.90;2.63;;;;;;;;;;5069770;28;20291;-79
2021/07/12 10:16:24;;;;;;;3.07;2.50;;;;;;;;;;5071042;28;20237;-79
2021/07/12 10:18:50;;;;;;;3.10;2.80;;;;;;;;;;5071238;28;20179;-79
2021/07/12 10:21:17;;;;;;;4.00;2.50;;;;;;;;;;5072283;28;20168;-80
2021/07/12 10:23:43;;;;;;;3.10;2.80;;;;;;;;;;5070478;28;20176;-80
2021/07/12 10:26:09;;;;;;;3.20;2.40;;;;;;;;;;5072783;28;20510;-80
2021/07/12 10:28:39;;;;;;;2.93;2.50;;;;;;;;;;5071385;28;20704;-80
2021/07/12 10:31:18;;;;;;;2.80;2.60;;;;;;;;;;5071450;28;20178;-79
2021/07/12 10:33:47;;;;;;;3.00;2.80;;;;;;;;;;5070981;28;20186;-79
2021/07/12 10:36:33;;;;;;;2.70;2.50;;;;;;;;;;5070111;28;20204;-80
2021/07/12 10:38:59;;;;;;;2.50;2.40;;;;;;;;;;5072255;28;20228;-80
2021/07/12 10:41:26;;;;;;;3.20;2.97;;;;;;;;;;5070013;28;20622;-80
2021/07/12 10:43:57;;;;;;;2.90;2.70;;;;;;;;;;5070895;28;20165;-80
2021/07/12 10:46:32;;;;;;;4.53;3.57;;;;;;;;;;5072149;28;20171;-79
2021/07/12 10:48:58;;;;;;;3.30;3.00;;;;;;;;;;5069798;28;20201;-79
2021/07/12 10:51:31;;;;;;;2.57;2.37;;;;;;;;;;5071270;28;20167;-80
2021/07/12 10:54:03;;;;;;;3.13;2.90;;;;;;;;;;5068947;28;20234;-80
2021/07/12 10:56:50;;;;;;;3.50;2.90;;;;;;;;;;5053009;28;20199;-79
2021/07/12 10:59:25;;;;;;;3.90;2.97;;;;;;;;;;5072479;28;20170;-79
2021/07/12 11:01:51;;;;;;;3.60;3.13;;;;;;;;;;5053412;28;20219;-79
2021/07/12 11:04:34;;;;;;;3.13;2.90;;;;;;;;;;5072017;28;20224;-80
2021/07/12 11:07:01;;;;;;;2.77;2.57;;;;;;;;;;5057526;28;20246;-80
2021/07/12 11:09:47;;;;;;;2.93;2.73;;;;;;;;;;5077674;28;20189;-79
2021/07/12 11:12:25;;;;;;;3.77;3.20;;;;;;;;;;5067847;28;20170;-80
2021/07/12 11:15:08;;;;;;;3.20;2.90;;;;;;;;;;5074606;28;20178;-80
2021/07/12 11:17:52;;;;;;;3.57;3.27;;;;;;;;;;5056886;28;20567;-80
2021/07/12 11:20:37;;;;;;;2.83;2.63;;;;;;;;;;5057035;28;20188;-80
2021/07/12 11:23:03;;;;;;;2.70;2.50;;;;;;;;;;5075230;28;20182;-79
2021/07/12 11:25:39;;;;;;;3.00;2.80;;;;;;;;;;5057562;28;20232;-80
2021/07/12 11:28:13;;;;;;;5.40;2.73;;;;;;;;;;5074992;28;20182;-80
2021/07/12 11:30:39;;;;;;;3.00;2.80;;;;;;;;;;5056716;28;20172;-80
2021/07/12 11:33:05;;;;;;;3.50;3.20;;;;;;;;;;5048451;28;20178;-80
2021/07/12 11:35:32;;;;;;;3.27;2.93;;;;;;;;;;5057062;28;20179;-80
2021/07/12 11:38:02;;;;;;;3.43;3.13;;;;;;;;;;5057103;28;20202;-80
2021/07/12 11:40:28;;;;;;;3.07;2.67;;;;;;;;;;5056711;28;20182;-79
2021/07/12 11:42:54;;;;;;;3.17;2.87;;;;;;;;;;5074151;28;20196;-80
2021/07/12 11:45:23;;;;;;;2.90;2.70;;;;;;;;;;5074498;28;20534;-80
2021/07/12 11:47:55;;;;;;;3.00;2.77;;;;;;;;;;5074739;28;20184;-80
2021/07/12 11:50:29;;;;;;;2.87;2.67;;;;;;;;;;5057102;28;20641;-79
2021/07/12 11:52:56;;;;;;;2.90;2.70;;;;;;;;;;5074488;28;20223;-80
2021/07/12 11:55:26;;;;;;;3.03;2.83;;;;;;;;;;5074247;28;20225;-80
2021/07/12 11:57:56;;;;;;;2.63;2.30;;;;;;;;;;5073729;28;20199;-81
2021/07/12 12:00:38;;;;;;;2.80;2.60;;;;;;;;;;5074534;28;20177;-80
2021/07/12 12:03:05;;;;;;;2.70;2.50;;;;;;;;;;5089547;28;20191;-81
2021/07/12 12:05:32;;;;;;;2.70;2.50;;;;;;;;;;5089993;28;20542;-79
2021/07/12 12:07:59;;;;;;;2.90;2.60;;;;;;;;;;5089300;28;20376;-80
2021/07/12 12:10:25;;;;;;;2.77;2.57;;;;;;;;;;5089954;28;20186;-79
2021/07/12 12:13:02;;;;;;;2.87;2.60;;;;;;;;;;5089165;28;20179;-80
2021/07/12 12:15:33;;;;;;;2.57;2.37;;;;;;;;;;5074427;28;20180;-79
2021/07/12 12:18:05;;;;;;;2.57;2.37;;;;;;;;;;5073621;28;20195;-80
2021/07/12 12:20:35;;;;;;;2.60;2.37;;;;;;;;;;5074689;28;20173;-79
2021/07/12 12:23:10;;;;;;;3.60;2.60;;;;;;;;;;5089935;28;20569;-80
2021/07/12 12:26:02;;;;;;;2.97;2.70;;;;;;;;;;5090200;28;20173;-80
2021/07/12 12:28:33;;;;;;;2.77;2.57;;;;;;;;;;5089981;28;20178;-80
2021/07/12 12:31:05;;;;;;;2.90;2.70;;;;;;;;;;5073840;28;20199;-80
2021/07/12 12:33:33;;;;;;;2.80;2.60;;;;;;;;;;5089243;28;20289;-80
2021/07/12 12:36:01;;;;;;;2.63;2.43;;;;;;;;;;5088463;28;20178;-80
2021/07/12 12:38:27;;;;;;;2.87;2.57;;;;;;;;;;5088968;28;20582;-80
2021/07/12 12:40:58;;;;;;;18.17;3.27;;;;;;;;;;5089188;28;20636;-79
2021/07/12 12:43:24;;;;;;;8.15;3.35;;;;;;;;;;5054969;28;20769;-79
2021/07/12 12:45:51;;;;;;;2.70;2.43;;;;;;;;;;5073125;28;20174;-80
2021/07/12 12:48:34;;;;;;;2.80;2.37;;;;;;;;;;5055062;28;20229;-79
2021/07/12 12:51:20;;;;;;;3.00;2.70;;;;;;;;;;5054602;28;20182;-80
2021/07/12 12:53:56;;;;;;;2.90;2.67;;;;;;;;;;5055596;28;20584;-80
2021/07/12 12:56:22;;;;;;;2.87;2.43;;;;;;;;;;5056637;28;20199;-80
2021/07/12 12:58:55;;;;;;;3.03;2.60;;;;;;;;;;5056482;28;20517;-80
2021/07/12 13:01:21;;;;;;;2.90;2.60;;;;;;;;;;5056671;28;20224;-80
2021/07/12 13:03:48;;;;;;;2.90;2.70;;;;;;;;;;5074443;28;20166;-80
2021/07/12 13:06:14;;;;;;;2.97;2.70;;;;;;;;;;5056565;28;20238;-80
2021/07/12 13:08:55;;;;;;;2.60;2.40;;;;;;;;;;5055838;28;20186;-81
2021/07/12 13:11:31;;;;;;;4.03;2.50;;;;;;;;;;5055581;28;20273;-80
2021/07/12 13:13:57;;;;;;;2.60;2.40;;;;;;;;;;5074226;28;20586;-80
2021/07/12 13:16:28;;;;;;;2.73;2.53;;;;;;;;;;5056154;28;20297;-80
2021/07/12 13:18:54;;;;;;;2.50;2.30;;;;;;;;;;5072565;28;20183;-80
2021/07/12 13:21:40;;;;;;;2.40;2.30;;;;;;;;;;5054682;28;20541;-80
2021/07/12 13:24:06;;;;;;;2.63;2.43;;;;;;;;;;5046092;28;20204;-80
2021/07/12 13:26:32;;;;;;;3.37;2.40;;;;;;;;;;5072814;28;20542;-80
2021/07/12 13:29:01;;;;;;;2.90;2.70;;;;;;;;;;5055260;28;20227;-80
2021/07/12 13:31:27;;;;;;;3.83;2.63;;;;;;;;;;5047182;28;20219;-80
2021/07/12 13:33:53;;;;;;;2.63;2.27;;;;;;;;;;5088200;28;20179;-80
2021/07/12 13:36:19;;;;;;;2.77;2.57;;;;;;;;;;5072952;28;20257;-80
2021/07/12 13:38:45;;;;;;;2.67;2.47;;;;;;;;;;5073350;28;20183;-80
2021/07/12 13:41:11;;;;;;;2.67;2.47;;;;;;;;;;5073077;28;20175;-80
2021/07/12 13:43:38;;;;;;;3.03;2.40;;;;;;;;;;5087909;28;20176;-80
2021/07/12 13:46:04;;;;;;;2.70;2.50;;;;;;;;;;5088269;28;20171;-81
2021/07/12 13:48:30;;;;;;;2.70;2.50;;;;;;;;;;5072395;28;20255;-80
2021/07/12 13:50:56;;;;;;;1.80;1.70;;;;;;;;;;5087751;28;20301;-80
2021/07/12 13:53:24;;;;;;;2.37;2.17;;;;;;;;;;5087496;28;20242;-80
2021/07/12 13:55:50;;;;;;;2.57;2.37;;;;;;;;;;5087775;28;20205;-80
2021/07/12 13:58:17;;;;;;;2.43;2.23;;;;;;;;;;5072237;28;20582;-80
2021/07/12 14:00:43;;;;;;;2.40;2.27;;;;;;;;;;5072058;28;20647;-80
2021/07/12 14:03:09;;;;;;;2.20;2.00;;;;;;;;;;5088254;28;20186;-80
2021/07/12 14:05:35;;;;;;;2.20;2.10;;;;;;;;;;5072189;28;20231;-80
2021/07/12 14:08:02;;;;;;;2.13;2.03;;;;;;;;;;5087757;28;20211;-80
2021/07/12 14:10:28;;;;;;;2.53;2.33;;;;;;;;;;5087907;28;20178;-80
2021/07/12 14:12:54;;;;;;;4.33;2.53;;;;;;;;;;5072497;28;20166;-80
2021/07/12 14:15:21;;;;;;;2.60;2.40;;;;;;;;;;5087278;28;20217;-80
2021/07/12 14:17:47;;;;;;;3.23;2.30;;;;;;;;;;5072269;28;20192;-80
2021/07/12 14:20:13;;;;;;;2.93;2.73;;;;;;;;;;5087813;28;20172;-80
2021/07/12 14:22:40;;;;;;;2.67;2.47;;;;;;;;;;5087173;28;20172;-81
2021/07/12 14:25:07;;;;;;;2.90;2.63;;;;;;;;;;5045718;28;20287;-80
2021/07/12 14:27:33;;;;;;;2.87;2.20;;;;;;;;;;5071222;28;20175;-81
2021/07/12 14:29:59;;;;;;;2.73;2.30;;;;;;;;;;5072129;28;20173;-82
2021/07/12 14:32:25;;;;;;;4.30;2.33;;;;;;;;;;5071252;28;20323;-82
2021/07/12 14:34:51;;;;;;;3.97;2.67;;;;;;;;;;5071996;28;20178;-80
2021/07/12 14:37:17;;;;;;;2.70;2.50;;;;;;;;;;5070456;28;20223;-80
2021/07/12 14:39:43;;;;;;;4.83;2.60;;;;;;;;;;5071279;28;20230;-80
2021/07/12 14:42:09;;;;;;;2.90;2.10;;;;;;;;;;5075205;28;20181;-81
2021/07/12 14:44:36;;;;;;;2.73;2.53;;;;;;;;;;5076092;28;20644;-81
2021/07/12 14:47:06;;;;;;;2.83;2.53;;;;;;;;;;5075041;28;20590;-82
2021/07/12 14:49:33;;;;;;;2.53;2.33;;;;;;;;;;5074831;28;20187;-82
2021/07/12 14:51:59;;;;;;;2.30;2.10;;;;;;;;;;5074681;28;20184;-82